sensor_id;sensor_type;location;lat;lon;timestamp;temperature;humidity
66610;DHT22;53468;48.276;14.416;2022-08-19T00:05:08;18.50;99.90
66610;DHT22;53468;48.276;14.416;2022-08-19T00:10:54;18.50;99.90
66610;DHT22;53468;48.276;14.416;2022-08-19T00:16:27;18.40;99.90
66610;DHT22;53468;48.276;14.416;2022-08-19T00:22:01;18.40;99.90
66610;DHT22;53468;48.276;14.416;2022-08-19T00:27:38;18.30;99.90
66610;DHT22;53468;48.276;14.416;2022-08-19T00:33:12;18.30;99.90
66610;DHT22;53468;48.276;14.416;2022-08-19T00:38:47;18.20;99.90
66610;DHT22;53468;48.276;14.416;2022-08-19T00:44:25;18.20;99.90
66610;DHT22;53468;48.276;14.416;2022-08-19T00:50:00;18.20;99.90
66610;DHT22;53468;48.276;14.416;2022-08-19T00:55:34;18.20;99.90
66610;DHT22;53468;48.276;14.416;2022-08-19T01:01:08;18.10;99.90
66610;DHT22;53468;48.276;14.416;2022-08-19T01:06:41;18.10;99.90
66610;DHT22;53468;48.276;14.416;2022-08-19T01:12:15;18.00;99.90
66610;DHT22;53468;48.276;14.416;2022-08-19T01:17:49;18.00;99.90
66610;DHT22;53468;48.276;14.416;2022-08-19T01:23:25;17.90;99.90
66610;DHT22;53468;48.276;14.416;2022-08-19T01:29:14;17.90;99.90
66610;DHT22;53468;48.276;14.416;2022-08-19T01:34:47;17.80;99.90
66610;DHT22;53468;48.276;14.416;2022-08-19T01:40:24;17.80;99.90
66610;DHT22;53468;48.276;14.416;2022-08-19T01:45:57;17.80;99.90
66610;DHT22;53468;48.276;14.416;2022-08-19T01:51:34;17.80;99.90
66610;DHT22;53468;48.276;14.416;2022-08-19T01:57:10;17.80;99.90
66610;DHT22;53468;48.276;14.416;2022-08-19T02:02:45;17.80;99.90
66610;DHT22;53468;48.276;14.416;2022-08-19T02:08:18;17.70;99.90
66610;DHT22;53468;48.276;14.416;2022-08-19T02:13:54;17.70;99.90
66610;DHT22;53468;48.276;14.416;2022-08-19T02:19:27;17.60;99.90
66610;DHT22;53468;48.276;14.416;2022-08-19T02:25:04;17.70;99.90
66610;DHT22;53468;48.276;14.416;2022-08-19T02:30:40;17.70;99.90
66610;DHT22;53468;48.276;14.416;2022-08-19T02:36:15;17.80;99.90
66610;DHT22;53468;48.276;14.416;2022-08-19T02:41:48;17.80;99.90
66610;DHT22;53468;48.276;14.416;2022-08-19T02:47:24;17.80;99.90
66610;DHT22;53468;48.276;14.416;2022-08-19T02:52:57;17.70;99.90
66610;DHT22;53468;48.276;14.416;2022-08-19T02:58:32;17.70;99.90
66610;DHT22;53468;48.276;14.416;2022-08-19T03:04:09;17.70;99.90
66610;DHT22;53468;48.276;14.416;2022-08-19T03:09:43;17.70;99.90
66610;DHT22;53468;48.276;14.416;2022-08-19T03:15:16;17.70;99.90
66610;DHT22;53468;48.276;14.416;2022-08-19T03:20:53;17.60;99.90
66610;DHT22;53468;48.276;14.416;2022-08-19T03:26:27;17.60;99.90
66610;DHT22;53468;48.276;14.416;2022-08-19T03:32:02;17.60;99.90
66610;DHT22;53468;48.276;14.416;2022-08-19T03:37:37;17.50;99.90
66610;DHT22;53468;48.276;14.416;2022-08-19T03:43:10;17.30;99.90
66610;DHT22;53468;48.276;14.416;2022-08-19T03:48:44;17.30;99.90
66610;DHT22;53468;48.276;14.416;2022-08-19T03:54:21;17.30;99.90
66610;DHT22;53468;48.276;14.416;2022-08-19T03:59:55;17.40;99.90
66610;DHT22;53468;48.276;14.416;2022-08-19T04:05:28;17.30;99.90
66610;DHT22;53468;48.276;14.416;2022-08-19T04:11:07;17.30;99.90
66610;DHT22;53468;48.276;14.416;2022-08-19T04:16:40;17.40;99.90
66610;DHT22;53468;48.276;14.416;2022-08-19T04:22:15;17.40;99.90
66610;DHT22;53468;48.276;14.416;2022-08-19T04:27:50;17.60;99.90
66610;DHT22;53468;48.276;14.416;2022-08-19T04:33:24;17.60;99.90
66610;DHT22;53468;48.276;14.416;2022-08-19T04:39:01;17.70;99.90
66610;DHT22;53468;48.276;14.416;2022-08-19T04:44:36;17.70;99.90
66610;DHT22;53468;48.276;14.416;2022-08-19T04:50:10;17.90;99.90
66610;DHT22;53468;48.276;14.416;2022-08-19T04:55:43;17.90;99.90
66610;DHT22;53468;48.276;14.416;2022-08-19T05:01:22;18.10;99.90
66610;DHT22;53468;48.276;14.416;2022-08-19T05:06:55;18.20;99.90
66610;DHT22;53468;48.276;14.416;2022-08-19T05:12:29;18.30;99.90
66610;DHT22;53468;48.276;14.416;2022-08-19T06:27:51;19.10;99.90
66610;DHT22;53468;48.276;14.416;2022-08-19T06:33:39;19.50;99.90
66610;DHT22;53468;48.276;14.416;2022-08-19T06:39:17;19.90;99.90
66610;DHT22;53468;48.276;14.416;2022-08-19T06:44:56;20.20;99.90
66610;DHT22;53468;48.276;14.416;2022-08-19T06:50:34;20.40;99.90
66610;DHT22;53468;48.276;14.416;2022-08-19T06:56:15;20.60;99.90
66610;DHT22;53468;48.276;14.416;2022-08-19T07:01:59;20.80;99.90
66610;DHT22;53468;48.276;14.416;2022-08-19T07:07:33;21.00;99.90
66610;DHT22;53468;48.276;14.416;2022-08-19T07:13:08;21.10;99.90
66610;DHT22;53468;48.276;14.416;2022-08-19T07:18:47;21.40;99.90
66610;DHT22;53468;48.276;14.416;2022-08-19T07:24:25;22.00;99.90
66610;DHT22;53468;48.276;14.416;2022-08-19T07:29:58;22.40;99.90
66610;DHT22;53468;48.276;14.416;2022-08-19T07:35:32;23.00;99.90
66610;DHT22;53468;48.276;14.416;2022-08-19T07:41:06;22.90;99.90
66610;DHT22;53468;48.276;14.416;2022-08-19T07:46:43;22.40;99.90
66610;DHT22;53468;48.276;14.416;2022-08-19T07:52:17;22.30;99.90
66610;DHT22;53468;48.276;14.416;2022-08-19T07:57:50;22.40;99.90
66610;DHT22;53468;48.276;14.416;2022-08-19T08:03:24;22.90;99.90
66610;DHT22;53468;48.276;14.416;2022-08-19T08:09:22;23.00;99.90
66610;DHT22;53468;48.276;14.416;2022-08-19T08:14:58;23.60;99.90
66610;DHT22;53468;48.276;14.416;2022-08-19T08:20:32;23.40;99.90
66610;DHT22;53468;48.276;14.416;2022-08-19T08:26:06;23.30;99.90
66610;DHT22;53468;48.276;14.416;2022-08-19T08:31:40;23.30;99.90
66610;DHT22;53468;48.276;14.416;2022-08-19T08:37:12;23.70;99.90
66610;DHT22;53468;48.276;14.416;2022-08-19T08:42:50;24.10;99.90
66610;DHT22;53468;48.276;14.416;2022-08-19T08:48:31;24.70;99.90
66610;DHT22;53468;48.276;14.416;2022-08-19T08:54:07;25.40;99.90
66610;DHT22;53468;48.276;14.416;2022-08-19T08:59:43;25.40;99.90
66610;DHT22;53468;48.276;14.416;2022-08-19T09:05:23;25.80;99.90
66610;DHT22;53468;48.276;14.416;2022-08-19T09:10:57;26.20;99.90
66610;DHT22;53468;48.276;14.416;2022-08-19T09:16:31;26.00;99.90
66610;DHT22;53468;48.276;14.416;2022-08-19T09:22:03;25.90;99.90
66610;DHT22;53468;48.276;14.416;2022-08-19T09:27:36;25.80;99.90
66610;DHT22;53468;48.276;14.416;2022-08-19T09:33:10;26.10;99.90
66610;DHT22;53468;48.276;14.416;2022-08-19T09:38:43;26.40;99.90
66610;DHT22;53468;48.276;14.416;2022-08-19T09:44:15;26.50;99.90
66610;DHT22;53468;48.276;14.416;2022-08-19T09:49:50;26.50;99.90
66610;DHT22;53468;48.276;14.416;2022-08-19T09:55:22;26.60;99.90
66610;DHT22;53468;48.276;14.416;2022-08-19T10:00:54;26.90;99.90
66610;DHT22;53468;48.276;14.416;2022-08-19T10:06:29;26.70;99.90
66610;DHT22;53468;48.276;14.416;2022-08-19T10:12:04;26.40;99.90
66610;DHT22;53468;48.276;14.416;2022-08-19T10:17:36;26.60;99.90
66610;DHT22;53468;48.276;14.416;2022-08-19T10:23:10;26.80;99.90
66610;DHT22;53468;48.276;14.416;2022-08-19T10:28:44;27.20;99.90
66610;DHT22;53468;48.276;14.416;2022-08-19T10:34:18;27.70;99.90
66610;DHT22;53468;48.276;14.416;2022-08-19T10:39:52;27.00;99.90
66610;DHT22;53468;48.276;14.416;2022-08-19T10:45:24;27.30;99.90
66610;DHT22;53468;48.276;14.416;2022-08-19T10:50:57;27.40;99.90
66610;DHT22;53468;48.276;14.416;2022-08-19T10:56:48;27.20;99.90
66610;DHT22;53468;48.276;14.416;2022-08-19T11:02:23;27.20;99.90
66610;DHT22;53468;48.276;14.416;2022-08-19T11:07:57;27.30;99.90
66610;DHT22;53468;48.276;14.416;2022-08-19T11:13:34;27.50;99.90
66610;DHT22;53468;48.276;14.416;2022-08-19T11:19:09;27.70;99.90
66610;DHT22;53468;48.276;14.416;2022-08-19T11:24:41;27.30;99.90
66610;DHT22;53468;48.276;14.416;2022-08-19T11:30:15;27.60;99.90
66610;DHT22;53468;48.276;14.416;2022-08-19T11:35:48;27.60;99.90
66610;DHT22;53468;48.276;14.416;2022-08-19T11:41:22;27.10;99.90
66610;DHT22;53468;48.276;14.416;2022-08-19T11:46:56;27.00;99.90
66610;DHT22;53468;48.276;14.416;2022-08-19T11:52:31;27.40;99.90
66610;DHT22;53468;48.276;14.416;2022-08-19T11:58:03;27.50;99.90
66610;DHT22;53468;48.276;14.416;2022-08-19T12:03:38;27.80;99.90
66610;DHT22;53468;48.276;14.416;2022-08-19T12:09:11;27.90;99.90
66610;DHT22;53468;48.276;14.416;2022-08-19T12:14:44;28.40;99.90
66610;DHT22;53468;48.276;14.416;2022-08-19T12:20:18;28.40;96.20
66610;DHT22;53468;48.276;14.416;2022-08-19T12:25:50;28.20;97.00
66610;DHT22;53468;48.276;14.416;2022-08-19T12:31:23;28.10;96.30
66610;DHT22;53468;48.276;14.416;2022-08-19T12:36:56;28.00;96.80
66610;DHT22;53468;48.276;14.416;2022-08-19T12:42:29;27.90;94.80
66610;DHT22;53468;48.276;14.416;2022-08-19T12:48:01;27.70;95.60
66610;DHT22;53468;48.276;14.416;2022-08-19T12:53:37;27.80;97.00
66610;DHT22;53468;48.276;14.416;2022-08-19T12:59:09;27.80;95.40
66610;DHT22;53468;48.276;14.416;2022-08-19T13:04:43;28.00;96.50
66610;DHT22;53468;48.276;14.416;2022-08-19T13:10:19;28.30;95.00
66610;DHT22;53468;48.276;14.416;2022-08-19T13:15:52;28.50;93.60
66610;DHT22;53468;48.276;14.416;2022-08-19T13:21:26;28.70;95.00
66610;DHT22;53468;48.276;14.416;2022-08-19T13:27:02;28.80;93.90
66610;DHT22;53468;48.276;14.416;2022-08-19T13:32:34;29.00;93.40
66610;DHT22;53468;48.276;14.416;2022-08-19T13:38:24;29.10;91.50
66610;DHT22;53468;48.276;14.416;2022-08-19T13:43:58;29.20;90.20
66610;DHT22;53468;48.276;14.416;2022-08-19T13:49:30;29.10;91.40
66610;DHT22;53468;48.276;14.416;2022-08-19T13:55:03;29.10;91.20
66610;DHT22;53468;48.276;14.416;2022-08-19T14:00:40;29.30;92.10
66610;DHT22;53468;48.276;14.416;2022-08-19T14:06:13;29.20;91.90
66610;DHT22;53468;48.276;14.416;2022-08-19T14:11:45;29.10;90.30
66610;DHT22;53468;48.276;14.416;2022-08-19T14:17:20;29.20;92.10
66610;DHT22;53468;48.276;14.416;2022-08-19T14:22:53;29.00;89.30
66610;DHT22;53468;48.276;14.416;2022-08-19T14:28:26;29.10;91.50
66610;DHT22;53468;48.276;14.416;2022-08-19T14:34:03;29.10;91.20
66610;DHT22;53468;48.276;14.416;2022-08-19T14:39:35;29.00;88.60
66610;DHT22;53468;48.276;14.416;2022-08-19T14:45:09;29.00;91.80
66610;DHT22;53468;48.276;14.416;2022-08-19T14:50:44;28.60;91.80
66610;DHT22;53468;48.276;14.416;2022-08-19T14:56:19;28.50;90.80
66610;DHT22;53468;48.276;14.416;2022-08-19T15:01:52;28.50;90.80
66610;DHT22;53468;48.276;14.416;2022-08-19T15:07:26;28.30;90.20
66610;DHT22;53468;48.276;14.416;2022-08-19T15:12:59;28.50;91.50
66610;DHT22;53468;48.276;14.416;2022-08-19T15:18:32;28.30;90.20
66610;DHT22;53468;48.276;14.416;2022-08-19T15:24:07;28.40;90.40
66610;DHT22;53468;48.276;14.416;2022-08-19T15:29:39;28.40;90.70
66610;DHT22;53468;48.276;14.416;2022-08-19T15:35:12;28.00;92.70
66610;DHT22;53468;48.276;14.416;2022-08-19T15:40:46;26.90;91.70
66610;DHT22;53468;48.276;14.416;2022-08-19T15:46:22;25.30;93.00
66610;DHT22;53468;48.276;14.416;2022-08-19T15:51:55;23.60;96.70
66610;DHT22;53468;48.276;14.416;2022-08-19T15:57:31;22.80;99.90
66610;DHT22;53468;48.276;14.416;2022-08-19T16:03:21;22.20;99.90
66610;DHT22;53468;48.276;14.416;2022-08-19T16:09:10;21.90;99.90
66610;DHT22;53468;48.276;14.416;2022-08-19T16:14:44;21.40;99.90
66610;DHT22;53468;48.276;14.416;2022-08-19T16:20:20;21.20;99.90
66610;DHT22;53468;48.276;14.416;2022-08-19T16:26:19;20.90;99.90
66610;DHT22;53468;48.276;14.416;2022-08-19T16:31:55;20.80;99.90
66610;DHT22;53468;48.276;14.416;2022-08-19T16:37:28;20.80;99.90
66610;DHT22;53468;48.276;14.416;2022-08-19T16:43:01;20.50;99.90
66610;DHT22;53468;48.276;14.416;2022-08-19T16:48:37;20.40;99.90
66610;DHT22;53468;48.276;14.416;2022-08-19T16:54:13;20.40;99.90
66610;DHT22;53468;48.276;14.416;2022-08-19T16:59:47;20.40;99.90
66610;DHT22;53468;48.276;14.416;2022-08-19T17:05:24;20.40;99.90
66610;DHT22;53468;48.276;14.416;2022-08-19T17:10:58;20.40;99.90
66610;DHT22;53468;48.276;14.416;2022-08-19T17:16:36;20.20;99.90
66610;DHT22;53468;48.276;14.416;2022-08-19T17:22:14;20.20;99.90
66610;DHT22;53468;48.276;14.416;2022-08-19T17:27:48;20.30;99.90
66610;DHT22;53468;48.276;14.416;2022-08-19T17:33:26;20.20;99.90
66610;DHT22;53468;48.276;14.416;2022-08-19T17:39:20;20.30;99.90
66610;DHT22;53468;48.276;14.416;2022-08-19T17:45:00;20.20;99.90
66610;DHT22;53468;48.276;14.416;2022-08-19T17:50:45;20.20;99.90
66610;DHT22;53468;48.276;14.416;2022-08-19T18:03:20;19.90;99.90
66610;DHT22;53468;48.276;14.416;2022-08-19T18:09:07;19.80;99.90
66610;DHT22;53468;48.276;14.416;2022-08-19T18:14:39;19.60;99.90
66610;DHT22;53468;48.276;14.416;2022-08-19T18:20:15;19.40;99.90
66610;DHT22;53468;48.276;14.416;2022-08-19T18:25:48;19.30;99.90
66610;DHT22;53468;48.276;14.416;2022-08-19T18:31:20;19.20;99.90
66610;DHT22;53468;48.276;14.416;2022-08-19T18:36:55;19.20;99.90
66610;DHT22;53468;48.276;14.416;2022-08-19T18:42:27;19.20;99.90
66610;DHT22;53468;48.276;14.416;2022-08-19T18:48:17;19.10;99.90
66610;DHT22;53468;48.276;14.416;2022-08-19T18:54:08;18.90;99.90
66610;DHT22;53468;48.276;14.416;2022-08-19T18:59:40;18.80;99.90
66610;DHT22;53468;48.276;14.416;2022-08-19T19:05:15;18.90;99.90
66610;DHT22;53468;48.276;14.416;2022-08-19T19:10:51;18.90;99.90
66610;DHT22;53468;48.276;14.416;2022-08-19T19:16:24;18.90;99.90
66610;DHT22;53468;48.276;14.416;2022-08-19T19:21:58;18.80;99.90
66610;DHT22;53468;48.276;14.416;2022-08-19T19:27:32;18.70;99.90
66610;DHT22;53468;48.276;14.416;2022-08-19T19:33:05;18.80;99.90
66610;DHT22;53468;48.276;14.416;2022-08-19T19:38:40;18.80;99.90
66610;DHT22;53468;48.276;14.416;2022-08-19T19:44:16;18.80;99.90
66610;DHT22;53468;48.276;14.416;2022-08-19T19:49:50;18.80;99.90
66610;DHT22;53468;48.276;14.416;2022-08-19T19:55:25;18.80;99.90
66610;DHT22;53468;48.276;14.416;2022-08-19T20:01:00;18.80;99.90
66610;DHT22;53468;48.276;14.416;2022-08-19T20:06:34;18.80;99.90
66610;DHT22;53468;48.276;14.416;2022-08-19T20:12:07;18.80;99.90
66610;DHT22;53468;48.276;14.416;2022-08-19T20:17:41;18.90;99.90
66610;DHT22;53468;48.276;14.416;2022-08-19T20:23:16;18.90;99.90
66610;DHT22;53468;48.276;14.416;2022-08-19T20:28:49;18.90;99.90
66610;DHT22;53468;48.276;14.416;2022-08-19T20:34:24;19.00;99.90
66610;DHT22;53468;48.276;14.416;2022-08-19T20:39:59;19.00;99.90
66610;DHT22;53468;48.276;14.416;2022-08-19T20:45:32;19.00;99.90
66610;DHT22;53468;48.276;14.416;2022-08-19T20:51:08;19.00;99.90
66610;DHT22;53468;48.276;14.416;2022-08-19T20:56:42;19.10;99.90
66610;DHT22;53468;48.276;14.416;2022-08-19T21:02:14;19.10;99.90
66610;DHT22;53468;48.276;14.416;2022-08-19T21:07:50;19.10;99.90
66610;DHT22;53468;48.276;14.416;2022-08-19T21:13:24;19.00;99.90
66610;DHT22;53468;48.276;14.416;2022-08-19T21:18:57;19.00;99.90
66610;DHT22;53468;48.276;14.416;2022-08-19T21:24:32;19.00;99.90
66610;DHT22;53468;48.276;14.416;2022-08-19T21:30:06;19.00;99.90
66610;DHT22;53468;48.276;14.416;2022-08-19T21:35:39;19.10;99.90
66610;DHT22;53468;48.276;14.416;2022-08-19T21:41:15;19.20;99.90
66610;DHT22;53468;48.276;14.416;2022-08-19T21:46:48;19.20;99.90
66610;DHT22;53468;48.276;14.416;2022-08-19T21:52:21;19.30;99.90
66610;DHT22;53468;48.276;14.416;2022-08-19T21:57:57;19.20;99.90
66610;DHT22;53468;48.276;14.416;2022-08-19T22:03:32;19.20;99.90
66610;DHT22;53468;48.276;14.416;2022-08-19T22:09:05;19.20;99.90
66610;DHT22;53468;48.276;14.416;2022-08-19T22:14:40;19.10;99.90
66610;DHT22;53468;48.276;14.416;2022-08-19T22:20:16;19.20;99.90
66610;DHT22;53468;48.276;14.416;2022-08-19T22:25:49;19.10;99.90
66610;DHT22;53468;48.276;14.416;2022-08-19T22:31:23;19.10;99.90
66610;DHT22;53468;48.276;14.416;2022-08-19T22:36:56;19.10;99.90
66610;DHT22;53468;48.276;14.416;2022-08-19T22:42:28;19.10;99.90
66610;DHT22;53468;48.276;14.416;2022-08-19T22:48:04;19.00;99.90
66610;DHT22;53468;48.276;14.416;2022-08-19T22:53:40;18.90;99.90
66610;DHT22;53468;48.276;14.416;2022-08-19T22:59:16;18.90;99.90
66610;DHT22;53468;48.276;14.416;2022-08-19T23:04:52;18.80;99.90
66610;DHT22;53468;48.276;14.416;2022-08-19T23:10:26;18.70;99.90
66610;DHT22;53468;48.276;14.416;2022-08-19T23:16:00;18.60;99.90
66610;DHT22;53468;48.276;14.416;2022-08-19T23:21:34;18.50;99.90
66610;DHT22;53468;48.276;14.416;2022-08-19T23:27:07;18.50;99.90
66610;DHT22;53468;48.276;14.416;2022-08-19T23:33:02;18.50;99.90
66610;DHT22;53468;48.276;14.416;2022-08-19T23:38:41;18.40;99.90
66610;DHT22;53468;48.276;14.416;2022-08-19T23:44:14;18.30;99.90
66610;DHT22;53468;48.276;14.416;2022-08-19T23:49:47;18.20;99.90
66610;DHT22;53468;48.276;14.416;2022-08-19T23:55:24;18.10;99.90
